sensor_id;sensor_type;location;lat;lon;timestamp;P1;durP1;ratioP1;P2;durP2;ratioP2
56297;SDS011;42208;6.376;-10.782;2023-04-29T00:00:57;32.83;;;7.82;;
56297;SDS011;42208;6.376;-10.782;2023-04-29T00:03:26;26.65;;;7.88;;
56297;SDS011;42208;6.376;-10.782;2023-04-29T00:05:54;23.08;;;6.60;;
56297;SDS011;42208;6.376;-10.782;2023-04-29T00:08:23;24.88;;;6.35;;
56297;SDS011;42208;6.376;-10.782;2023-04-29T00:10:51;23.30;;;6.20;;
56297;SDS011;42208;6.376;-10.782;2023-04-29T00:13:20;24.05;;;7.00;;
56297;SDS011;42208;6.376;-10.782;2023-04-29T00:15:48;26.25;;;8.65;;
56297;SDS011;42208;6.376;-10.782;2023-04-29T00:18:16;20.52;;;6.78;;
56297;SDS011;42208;6.376;-10.782;2023-04-29T00:20:44;22.05;;;6.45;;
56297;SDS011;42208;6.376;-10.782;2023-04-29T00:23:12;23.65;;;5.70;;
56297;SDS011;42208;6.376;-10.782;2023-04-29T00:25:41;21.60;;;6.38;;
56297;SDS011;42208;6.376;-10.782;2023-04-29T00:28:09;21.02;;;6.30;;
56297;SDS011;42208;6.376;-10.782;2023-04-29T00:30:37;22.70;;;5.90;;
56297;SDS011;42208;6.376;-10.782;2023-04-29T00:33:06;21.50;;;6.63;;
56297;SDS011;42208;6.376;-10.782;2023-04-29T00:35:34;31.75;;;9.05;;
56297;SDS011;42208;6.376;-10.782;2023-04-29T00:38:02;21.80;;;8.00;;
56297;SDS011;42208;6.376;-10.782;2023-04-29T00:40:30;31.83;;;8.07;;
56297;SDS011;42208;6.376;-10.782;2023-04-29T00:42:59;32.38;;;7.82;;
56297;SDS011;42208;6.376;-10.782;2023-04-29T00:45:27;29.27;;;7.45;;
56297;SDS011;42208;6.376;-10.782;2023-04-29T00:47:55;28.05;;;6.90;;
56297;SDS011;42208;6.376;-10.782;2023-04-29T00:50:23;23.65;;;6.75;;
56297;SDS011;42208;6.376;-10.782;2023-04-29T00:52:53;20.30;;;7.60;;
56297;SDS011;42208;6.376;-10.782;2023-04-29T00:55:22;23.83;;;8.07;;
56297;SDS011;42208;6.376;-10.782;2023-04-29T00:57:50;18.70;;;7.97;;
56297;SDS011;42208;6.376;-10.782;2023-04-29T01:00:19;25.40;;;8.48;;
56297;SDS011;42208;6.376;-10.782;2023-04-29T01:02:48;27.55;;;9.77;;
56297;SDS011;42208;6.376;-10.782;2023-04-29T01:05:16;24.40;;;8.77;;
56297;SDS011;42208;6.376;-10.782;2023-04-29T01:08:09;26.63;;;9.15;;
56297;SDS011;42208;6.376;-10.782;2023-04-29T01:13:51;23.23;;;9.02;;
56297;SDS011;42208;6.376;-10.782;2023-04-29T01:16:33;23.80;;;9.68;;
56297;SDS011;42208;6.376;-10.782;2023-04-29T01:22:05;26.83;;;9.65;;
56297;SDS011;42208;6.376;-10.782;2023-04-29T01:24:34;28.60;;;10.50;;
56297;SDS011;42208;6.376;-10.782;2023-04-29T01:27:26;28.70;;;11.35;;
56297;SDS011;42208;6.376;-10.782;2023-04-29T01:32:59;40.25;;;14.00;;
56297;SDS011;42208;6.376;-10.782;2023-04-29T01:38:25;33.83;;;13.35;;
56297;SDS011;42208;6.376;-10.782;2023-04-29T01:41:30;34.28;;;12.77;;
56297;SDS011;42208;6.376;-10.782;2023-04-29T01:44:19;34.50;;;13.30;;
56297;SDS011;42208;6.376;-10.782;2023-04-29T01:46:51;31.33;;;14.57;;
56297;SDS011;42208;6.376;-10.782;2023-04-29T01:49:28;34.40;;;15.25;;
56297;SDS011;42208;6.376;-10.782;2023-04-29T01:51:56;38.85;;;14.98;;
56297;SDS011;42208;6.376;-10.782;2023-04-29T01:54:24;34.20;;;14.57;;
56297;SDS011;42208;6.376;-10.782;2023-04-29T01:56:54;27.55;;;13.70;;
56297;SDS011;42208;6.376;-10.782;2023-04-29T01:59:41;37.45;;;14.90;;
56297;SDS011;42208;6.376;-10.782;2023-04-29T02:02:29;33.75;;;12.32;;
56297;SDS011;42208;6.376;-10.782;2023-04-29T02:05:08;29.45;;;12.35;;
56297;SDS011;42208;6.376;-10.782;2023-04-29T02:07:43;34.90;;;13.10;;
56297;SDS011;42208;6.376;-10.782;2023-04-29T02:10:11;32.90;;;12.77;;
56297;SDS011;42208;6.376;-10.782;2023-04-29T02:12:42;32.70;;;12.27;;
56297;SDS011;42208;6.376;-10.782;2023-04-29T02:15:10;23.48;;;11.35;;
56297;SDS011;42208;6.376;-10.782;2023-04-29T02:17:39;27.40;;;10.98;;
56297;SDS011;42208;6.376;-10.782;2023-04-29T02:20:07;28.42;;;11.45;;
56297;SDS011;42208;6.376;-10.782;2023-04-29T02:22:35;25.20;;;11.20;;
56297;SDS011;42208;6.376;-10.782;2023-04-29T02:25:04;21.08;;;10.70;;
56297;SDS011;42208;6.376;-10.782;2023-04-29T02:27:33;24.30;;;10.32;;
56297;SDS011;42208;6.376;-10.782;2023-04-29T02:30:01;21.42;;;10.13;;
56297;SDS011;42208;6.376;-10.782;2023-04-29T02:32:30;20.65;;;10.00;;
56297;SDS011;42208;6.376;-10.782;2023-04-29T02:34:58;28.73;;;10.82;;
56297;SDS011;42208;6.376;-10.782;2023-04-29T02:37:27;30.73;;;11.70;;
56297;SDS011;42208;6.376;-10.782;2023-04-29T02:39:55;25.95;;;13.07;;
56297;SDS011;42208;6.376;-10.782;2023-04-29T02:42:24;25.58;;;10.73;;
56297;SDS011;42208;6.376;-10.782;2023-04-29T02:44:52;24.20;;;11.85;;
56297;SDS011;42208;6.376;-10.782;2023-04-29T02:47:20;28.00;;;12.18;;
56297;SDS011;42208;6.376;-10.782;2023-04-29T02:49:49;30.02;;;11.05;;
56297;SDS011;42208;6.376;-10.782;2023-04-29T02:52:17;25.35;;;10.27;;
56297;SDS011;42208;6.376;-10.782;2023-04-29T02:54:46;22.65;;;9.90;;
56297;SDS011;42208;6.376;-10.782;2023-04-29T02:57:15;20.17;;;8.80;;
56297;SDS011;42208;6.376;-10.782;2023-04-29T02:59:43;17.17;;;8.90;;
56297;SDS011;42208;6.376;-10.782;2023-04-29T03:02:11;26.30;;;10.02;;
56297;SDS011;42208;6.376;-10.782;2023-04-29T03:04:42;30.38;;;8.60;;
56297;SDS011;42208;6.376;-10.782;2023-04-29T03:07:10;27.15;;;9.18;;
56297;SDS011;42208;6.376;-10.782;2023-04-29T03:09:39;19.10;;;9.15;;
56297;SDS011;42208;6.376;-10.782;2023-04-29T03:12:07;24.67;;;9.00;;
56297;SDS011;42208;6.376;-10.782;2023-04-29T03:14:35;28.98;;;10.18;;
56297;SDS011;42208;6.376;-10.782;2023-04-29T03:17:03;33.65;;;10.40;;
56297;SDS011;42208;6.376;-10.782;2023-04-29T03:19:32;28.02;;;11.10;;
56297;SDS011;42208;6.376;-10.782;2023-04-29T03:22:00;31.08;;;10.70;;
56297;SDS011;42208;6.376;-10.782;2023-04-29T03:24:29;27.25;;;10.02;;
56297;SDS011;42208;6.376;-10.782;2023-04-29T03:26:57;25.90;;;9.52;;
56297;SDS011;42208;6.376;-10.782;2023-04-29T03:29:25;24.55;;;10.77;;
56297;SDS011;42208;6.376;-10.782;2023-04-29T03:31:54;27.92;;;10.93;;
56297;SDS011;42208;6.376;-10.782;2023-04-29T03:34:23;29.48;;;12.18;;
56297;SDS011;42208;6.376;-10.782;2023-04-29T03:37:07;28.55;;;10.90;;
56297;SDS011;42208;6.376;-10.782;2023-04-29T03:39:38;26.13;;;10.40;;
56297;SDS011;42208;6.376;-10.782;2023-04-29T03:42:07;26.63;;;10.30;;
56297;SDS011;42208;6.376;-10.782;2023-04-29T03:44:35;23.38;;;9.07;;
56297;SDS011;42208;6.376;-10.782;2023-04-29T03:47:03;31.83;;;11.02;;
56297;SDS011;42208;6.376;-10.782;2023-04-29T03:49:31;26.63;;;10.48;;
56297;SDS011;42208;6.376;-10.782;2023-04-29T03:52:00;24.45;;;10.18;;
56297;SDS011;42208;6.376;-10.782;2023-04-29T03:54:28;26.60;;;9.80;;
56297;SDS011;42208;6.376;-10.782;2023-04-29T03:56:56;22.92;;;8.68;;
56297;SDS011;42208;6.376;-10.782;2023-04-29T03:59:24;20.27;;;9.43;;
56297;SDS011;42208;6.376;-10.782;2023-04-29T04:01:53;26.52;;;9.15;;
56297;SDS011;42208;6.376;-10.782;2023-04-29T04:04:21;22.58;;;10.30;;
56297;SDS011;42208;6.376;-10.782;2023-04-29T04:06:50;37.08;;;10.13;;
56297;SDS011;42208;6.376;-10.782;2023-04-29T04:09:22;22.70;;;9.00;;
56297;SDS011;42208;6.376;-10.782;2023-04-29T04:11:51;20.17;;;8.65;;
56297;SDS011;42208;6.376;-10.782;2023-04-29T04:14:19;30.00;;;10.52;;
56297;SDS011;42208;6.376;-10.782;2023-04-29T04:16:48;21.45;;;10.07;;
56297;SDS011;42208;6.376;-10.782;2023-04-29T04:19:16;29.05;;;9.60;;
56297;SDS011;42208;6.376;-10.782;2023-04-29T04:21:45;20.20;;;9.95;;
56297;SDS011;42208;6.376;-10.782;2023-04-29T04:24:13;20.92;;;9.25;;
56297;SDS011;42208;6.376;-10.782;2023-04-29T04:26:42;19.65;;;9.38;;
56297;SDS011;42208;6.376;-10.782;2023-04-29T04:29:33;23.60;;;9.15;;
56297;SDS011;42208;6.376;-10.782;2023-04-29T04:32:15;25.10;;;9.00;;
56297;SDS011;42208;6.376;-10.782;2023-04-29T04:34:43;24.30;;;9.75;;
56297;SDS011;42208;6.376;-10.782;2023-04-29T04:37:12;27.83;;;10.30;;
56297;SDS011;42208;6.376;-10.782;2023-04-29T04:39:45;26.63;;;10.57;;
56297;SDS011;42208;6.376;-10.782;2023-04-29T04:42:14;19.05;;;9.75;;
56297;SDS011;42208;6.376;-10.782;2023-04-29T04:44:49;33.55;;;12.20;;
56297;SDS011;42208;6.376;-10.782;2023-04-29T04:47:46;25.70;;;9.90;;
56297;SDS011;42208;6.376;-10.782;2023-04-29T04:50:28;36.25;;;11.27;;
56297;SDS011;42208;6.376;-10.782;2023-04-29T04:52:56;28.67;;;10.82;;
56297;SDS011;42208;6.376;-10.782;2023-04-29T04:55:47;27.60;;;11.20;;
56297;SDS011;42208;6.376;-10.782;2023-04-29T04:58:16;21.80;;;9.35;;
56297;SDS011;42208;6.376;-10.782;2023-04-29T05:00:44;30.10;;;10.10;;
56297;SDS011;42208;6.376;-10.782;2023-04-29T05:03:13;26.02;;;10.73;;
56297;SDS011;42208;6.376;-10.782;2023-04-29T05:05:41;24.40;;;9.88;;
56297;SDS011;42208;6.376;-10.782;2023-04-29T05:08:10;24.55;;;10.75;;
56297;SDS011;42208;6.376;-10.782;2023-04-29T05:10:45;27.45;;;9.45;;
56297;SDS011;42208;6.376;-10.782;2023-04-29T05:13:13;30.83;;;10.82;;
56297;SDS011;42208;6.376;-10.782;2023-04-29T05:15:43;25.70;;;10.85;;
56297;SDS011;42208;6.376;-10.782;2023-04-29T05:18:15;19.85;;;8.63;;
56297;SDS011;42208;6.376;-10.782;2023-04-29T05:20:47;26.10;;;11.57;;
56297;SDS011;42208;6.376;-10.782;2023-04-29T05:23:15;20.58;;;9.98;;
56297;SDS011;42208;6.376;-10.782;2023-04-29T05:25:45;20.88;;;9.93;;
56297;SDS011;42208;6.376;-10.782;2023-04-29T05:28:15;24.38;;;10.32;;
56297;SDS011;42208;6.376;-10.782;2023-04-29T05:30:44;25.00;;;9.98;;
56297;SDS011;42208;6.376;-10.782;2023-04-29T05:33:13;23.42;;;10.02;;
56297;SDS011;42208;6.376;-10.782;2023-04-29T05:35:42;21.60;;;9.93;;
56297;SDS011;42208;6.376;-10.782;2023-04-29T05:38:10;25.55;;;8.82;;
56297;SDS011;42208;6.376;-10.782;2023-04-29T05:43:33;24.33;;;8.40;;
56297;SDS011;42208;6.376;-10.782;2023-04-29T05:46:03;29.80;;;8.55;;
56297;SDS011;42208;6.376;-10.782;2023-04-29T05:48:32;22.58;;;9.15;;
56297;SDS011;42208;6.376;-10.782;2023-04-29T05:51:00;22.75;;;9.27;;
56297;SDS011;42208;6.376;-10.782;2023-04-29T05:53:29;27.10;;;9.40;;
56297;SDS011;42208;6.376;-10.782;2023-04-29T05:55:57;35.10;;;9.88;;
56297;SDS011;42208;6.376;-10.782;2023-04-29T05:58:26;19.42;;;8.55;;
56297;SDS011;42208;6.376;-10.782;2023-04-29T06:00:55;26.48;;;9.32;;
56297;SDS011;42208;6.376;-10.782;2023-04-29T06:03:26;32.20;;;10.03;;
56297;SDS011;42208;6.376;-10.782;2023-04-29T06:06:14;31.15;;;11.25;;
56297;SDS011;42208;6.376;-10.782;2023-04-29T06:08:59;22.00;;;9.80;;
56297;SDS011;42208;6.376;-10.782;2023-04-29T06:11:29;24.90;;;8.80;;
56297;SDS011;42208;6.376;-10.782;2023-04-29T06:14:00;32.22;;;10.07;;
56297;SDS011;42208;6.376;-10.782;2023-04-29T06:16:28;30.02;;;8.98;;
56297;SDS011;42208;6.376;-10.782;2023-04-29T06:18:56;20.95;;;9.45;;
56297;SDS011;42208;6.376;-10.782;2023-04-29T06:21:26;26.00;;;10.43;;
56297;SDS011;42208;6.376;-10.782;2023-04-29T06:23:55;25.80;;;10.23;;
56297;SDS011;42208;6.376;-10.782;2023-04-29T06:26:23;27.17;;;9.88;;
56297;SDS011;42208;6.376;-10.782;2023-04-29T06:28:51;24.13;;;9.73;;
56297;SDS011;42208;6.376;-10.782;2023-04-29T06:31:20;28.08;;;9.57;;
56297;SDS011;42208;6.376;-10.782;2023-04-29T06:33:53;25.73;;;10.73;;
56297;SDS011;42208;6.376;-10.782;2023-04-29T06:36:22;31.38;;;11.25;;
56297;SDS011;42208;6.376;-10.782;2023-04-29T06:39:26;21.98;;;10.27;;
56297;SDS011;42208;6.376;-10.782;2023-04-29T06:42:12;24.77;;;9.80;;
56297;SDS011;42208;6.376;-10.782;2023-04-29T06:44:59;25.92;;;10.82;;
56297;SDS011;42208;6.376;-10.782;2023-04-29T06:47:39;20.90;;;9.93;;
56297;SDS011;42208;6.376;-10.782;2023-04-29T06:50:12;32.45;;;12.23;;
56297;SDS011;42208;6.376;-10.782;2023-04-29T06:52:42;30.63;;;14.27;;
56297;SDS011;42208;6.376;-10.782;2023-04-29T06:55:10;30.67;;;15.77;;
56297;SDS011;42208;6.376;-10.782;2023-04-29T06:57:41;34.42;;;15.90;;
56297;SDS011;42208;6.376;-10.782;2023-04-29T07:00:13;38.03;;;15.38;;
56297;SDS011;42208;6.376;-10.782;2023-04-29T07:02:41;38.47;;;17.10;;
56297;SDS011;42208;6.376;-10.782;2023-04-29T07:05:10;31.52;;;14.40;;
56297;SDS011;42208;6.376;-10.782;2023-04-29T07:07:38;34.42;;;14.68;;
56297;SDS011;42208;6.376;-10.782;2023-04-29T07:10:06;25.95;;;12.90;;
56297;SDS011;42208;6.376;-10.782;2023-04-29T07:12:35;28.77;;;13.63;;
56297;SDS011;42208;6.376;-10.782;2023-04-29T07:15:03;27.80;;;13.75;;
56297;SDS011;42208;6.376;-10.782;2023-04-29T07:17:32;34.50;;;15.57;;
56297;SDS011;42208;6.376;-10.782;2023-04-29T07:20:00;34.05;;;14.40;;
56297;SDS011;42208;6.376;-10.782;2023-04-29T07:22:29;29.88;;;13.05;;
56297;SDS011;42208;6.376;-10.782;2023-04-29T07:24:57;25.55;;;13.40;;
56297;SDS011;42208;6.376;-10.782;2023-04-29T07:27:25;75.78;;;30.77;;
56297;SDS011;42208;6.376;-10.782;2023-04-29T07:29:54;100.93;;;46.70;;
56297;SDS011;42208;6.376;-10.782;2023-04-29T07:32:22;93.07;;;41.90;;
56297;SDS011;42208;6.376;-10.782;2023-04-29T07:34:51;69.70;;;32.35;;
56297;SDS011;42208;6.376;-10.782;2023-04-29T07:37:20;62.25;;;26.67;;
56297;SDS011;42208;6.376;-10.782;2023-04-29T07:39:48;41.97;;;20.40;;
56297;SDS011;42208;6.376;-10.782;2023-04-29T07:42:19;41.42;;;16.40;;
56297;SDS011;42208;6.376;-10.782;2023-04-29T07:44:48;29.13;;;12.82;;
56297;SDS011;42208;6.376;-10.782;2023-04-29T07:47:17;35.13;;;14.10;;
56297;SDS011;42208;6.376;-10.782;2023-04-29T07:49:46;26.73;;;13.43;;
56297;SDS011;42208;6.376;-10.782;2023-04-29T07:52:14;29.55;;;13.80;;
56297;SDS011;42208;6.376;-10.782;2023-04-29T07:54:43;31.05;;;14.52;;
56297;SDS011;42208;6.376;-10.782;2023-04-29T07:57:11;28.38;;;15.43;;
56297;SDS011;42208;6.376;-10.782;2023-04-29T07:59:39;32.90;;;14.50;;
56297;SDS011;42208;6.376;-10.782;2023-04-29T08:02:08;34.40;;;14.70;;
56297;SDS011;42208;6.376;-10.782;2023-04-29T08:04:38;38.50;;;14.50;;
56297;SDS011;42208;6.376;-10.782;2023-04-29T08:07:09;35.10;;;13.10;;
56297;SDS011;42208;6.376;-10.782;2023-04-29T08:09:37;29.02;;;12.00;;
56297;SDS011;42208;6.376;-10.782;2023-04-29T08:12:08;39.63;;;15.25;;
56297;SDS011;42208;6.376;-10.782;2023-04-29T08:14:39;35.33;;;13.57;;
56297;SDS011;42208;6.376;-10.782;2023-04-29T08:17:07;30.92;;;13.57;;
56297;SDS011;42208;6.376;-10.782;2023-04-29T08:19:36;40.00;;;13.43;;
56297;SDS011;42208;6.376;-10.782;2023-04-29T08:22:04;30.67;;;13.10;;
56297;SDS011;42208;6.376;-10.782;2023-04-29T08:24:32;35.45;;;16.13;;
56297;SDS011;42208;6.376;-10.782;2023-04-29T08:27:04;47.08;;;18.95;;
56297;SDS011;42208;6.376;-10.782;2023-04-29T08:29:32;38.53;;;16.10;;
56297;SDS011;42208;6.376;-10.782;2023-04-29T08:32:00;31.30;;;13.55;;
56297;SDS011;42208;6.376;-10.782;2023-04-29T08:34:29;26.52;;;12.75;;
56297;SDS011;42208;6.376;-10.782;2023-04-29T08:36:58;32.78;;;12.38;;
56297;SDS011;42208;6.376;-10.782;2023-04-29T08:39:29;27.10;;;10.85;;
56297;SDS011;42208;6.376;-10.782;2023-04-29T08:41:57;25.33;;;10.37;;
56297;SDS011;42208;6.376;-10.782;2023-04-29T08:44:26;27.08;;;10.23;;
56297;SDS011;42208;6.376;-10.782;2023-04-29T08:46:54;31.92;;;10.40;;
56297;SDS011;42208;6.376;-10.782;2023-04-29T08:49:27;29.80;;;11.68;;
56297;SDS011;42208;6.376;-10.782;2023-04-29T08:51:55;22.45;;;10.50;;
56297;SDS011;42208;6.376;-10.782;2023-04-29T08:54:23;27.70;;;11.27;;
56297;SDS011;42208;6.376;-10.782;2023-04-29T08:56:52;31.80;;;11.85;;
56297;SDS011;42208;6.376;-10.782;2023-04-29T08:59:21;30.73;;;11.30;;
56297;SDS011;42208;6.376;-10.782;2023-04-29T09:01:51;29.25;;;10.85;;
56297;SDS011;42208;6.376;-10.782;2023-04-29T09:04:41;29.98;;;11.77;;
56297;SDS011;42208;6.376;-10.782;2023-04-29T09:07:14;31.35;;;10.82;;
56297;SDS011;42208;6.376;-10.782;2023-04-29T09:09:43;35.25;;;12.07;;
56297;SDS011;42208;6.376;-10.782;2023-04-29T09:12:12;31.45;;;14.13;;
56297;SDS011;42208;6.376;-10.782;2023-04-29T09:14:41;30.77;;;13.05;;
56297;SDS011;42208;6.376;-10.782;2023-04-29T09:17:09;38.47;;;13.27;;
56297;SDS011;42208;6.376;-10.782;2023-04-29T09:19:37;30.58;;;12.38;;
56297;SDS011;42208;6.376;-10.782;2023-04-29T09:22:06;35.67;;;14.48;;
56297;SDS011;42208;6.376;-10.782;2023-04-29T09:24:34;40.15;;;14.23;;
56297;SDS011;42208;6.376;-10.782;2023-04-29T09:27:02;28.20;;;13.88;;
56297;SDS011;42208;6.376;-10.782;2023-04-29T09:29:30;37.92;;;13.82;;
56297;SDS011;42208;6.376;-10.782;2023-04-29T09:31:59;37.15;;;15.85;;
56297;SDS011;42208;6.376;-10.782;2023-04-29T09:34:31;36.40;;;15.80;;
56297;SDS011;42208;6.376;-10.782;2023-04-29T09:37:02;42.17;;;15.75;;
56297;SDS011;42208;6.376;-10.782;2023-04-29T09:39:38;41.95;;;16.10;;
56297;SDS011;42208;6.376;-10.782;2023-04-29T09:42:06;37.08;;;14.32;;
56297;SDS011;42208;6.376;-10.782;2023-04-29T09:44:34;32.63;;;13.00;;
56297;SDS011;42208;6.376;-10.782;2023-04-29T09:47:06;24.35;;;10.95;;
56297;SDS011;42208;6.376;-10.782;2023-04-29T09:49:37;24.42;;;10.10;;
56297;SDS011;42208;6.376;-10.782;2023-04-29T09:52:11;19.42;;;9.48;;
56297;SDS011;42208;6.376;-10.782;2023-04-29T09:54:40;21.85;;;10.05;;
56297;SDS011;42208;6.376;-10.782;2023-04-29T09:57:10;28.15;;;11.32;;
56297;SDS011;42208;6.376;-10.782;2023-04-29T09:59:40;19.35;;;9.55;;
56297;SDS011;42208;6.376;-10.782;2023-04-29T10:02:12;25.42;;;9.90;;
56297;SDS011;42208;6.376;-10.782;2023-04-29T10:04:46;24.00;;;10.50;;
56297;SDS011;42208;6.376;-10.782;2023-04-29T10:07:19;30.27;;;9.38;;
56297;SDS011;42208;6.376;-10.782;2023-04-29T10:09:48;19.20;;;9.75;;
56297;SDS011;42208;6.376;-10.782;2023-04-29T10:12:19;23.48;;;10.00;;
56297;SDS011;42208;6.376;-10.782;2023-04-29T10:17:23;20.45;;;6.78;;
56297;SDS011;42208;6.376;-10.782;2023-04-29T10:20:13;11.82;;;5.85;;
56297;SDS011;42208;6.376;-10.782;2023-04-29T10:22:47;13.60;;;5.95;;
56297;SDS011;42208;6.376;-10.782;2023-04-29T10:25:20;16.45;;;7.18;;
56297;SDS011;42208;6.376;-10.782;2023-04-29T10:27:49;18.77;;;5.72;;
56297;SDS011;42208;6.376;-10.782;2023-04-29T10:30:18;12.20;;;5.65;;
56297;SDS011;42208;6.376;-10.782;2023-04-29T10:32:48;12.00;;;5.03;;
56297;SDS011;42208;6.376;-10.782;2023-04-29T10:35:19;14.80;;;5.13;;
56297;SDS011;42208;6.376;-10.782;2023-04-29T10:37:48;13.75;;;4.45;;
56297;SDS011;42208;6.376;-10.782;2023-04-29T10:40:21;14.30;;;4.18;;
56297;SDS011;42208;6.376;-10.782;2023-04-29T10:42:57;11.63;;;5.07;;
56297;SDS011;42208;6.376;-10.782;2023-04-29T10:50:31;16.10;;;3.72;;
56297;SDS011;42208;6.376;-10.782;2023-04-29T10:53:03;10.60;;;4.07;;
56297;SDS011;42208;6.376;-10.782;2023-04-29T10:55:36;12.55;;;4.57;;
56297;SDS011;42208;6.376;-10.782;2023-04-29T10:58:05;12.13;;;4.85;;
56297;SDS011;42208;6.376;-10.782;2023-04-29T11:00:52;19.90;;;8.13;;
56297;SDS011;42208;6.376;-10.782;2023-04-29T11:06:15;18.83;;;4.80;;
56297;SDS011;42208;6.376;-10.782;2023-04-29T11:08:43;11.38;;;4.25;;
56297;SDS011;42208;6.376;-10.782;2023-04-29T11:11:25;18.85;;;5.88;;
56297;SDS011;42208;6.376;-10.782;2023-04-29T11:13:54;13.20;;;4.07;;
56297;SDS011;42208;6.376;-10.782;2023-04-29T11:16:24;12.55;;;4.88;;
56297;SDS011;42208;6.376;-10.782;2023-04-29T11:19:29;18.77;;;7.55;;
56297;SDS011;42208;6.376;-10.782;2023-04-29T11:21:47;13.75;;;4.45;;
56297;SDS011;42208;6.376;-10.782;2023-04-29T11:26:59;17.35;;;4.85;;
56297;SDS011;42208;6.376;-10.782;2023-04-29T11:29:29;16.13;;;4.23;;
56297;SDS011;42208;6.376;-10.782;2023-04-29T11:32:00;10.65;;;4.20;;
56297;SDS011;42208;6.376;-10.782;2023-04-29T11:34:28;15.43;;;5.40;;
56297;SDS011;42208;6.376;-10.782;2023-04-29T11:36:58;16.50;;;4.68;;
56297;SDS011;42208;6.376;-10.782;2023-04-29T11:39:26;21.83;;;6.35;;
56297;SDS011;42208;6.376;-10.782;2023-04-29T11:42:12;12.95;;;4.10;;
56297;SDS011;42208;6.376;-10.782;2023-04-29T11:44:46;11.88;;;4.45;;
56297;SDS011;42208;6.376;-10.782;2023-04-29T11:47:24;14.68;;;4.43;;
56297;SDS011;42208;6.376;-10.782;2023-04-29T11:50:03;15.77;;;4.80;;
56297;SDS011;42208;6.376;-10.782;2023-04-29T11:52:33;14.68;;;5.30;;
56297;SDS011;42208;6.376;-10.782;2023-04-29T11:55:04;12.02;;;4.35;;
56297;SDS011;42208;6.376;-10.782;2023-04-29T11:57:35;17.73;;;4.55;;
56297;SDS011;42208;6.376;-10.782;2023-04-29T12:00:04;13.00;;;4.13;;
56297;SDS011;42208;6.376;-10.782;2023-04-29T12:02:36;13.18;;;5.50;;
56297;SDS011;42208;6.376;-10.782;2023-04-29T12:05:05;14.65;;;4.32;;
56297;SDS011;42208;6.376;-10.782;2023-04-29T12:07:35;9.35;;;3.33;;
56297;SDS011;42208;6.376;-10.782;2023-04-29T12:10:06;15.88;;;4.18;;
56297;SDS011;42208;6.376;-10.782;2023-04-29T12:12:36;12.20;;;4.20;;
56297;SDS011;42208;6.376;-10.782;2023-04-29T12:15:06;12.73;;;3.55;;
56297;SDS011;42208;6.376;-10.782;2023-04-29T12:17:35;13.95;;;4.38;;
56297;SDS011;42208;6.376;-10.782;2023-04-29T12:20:05;18.58;;;4.93;;
56297;SDS011;42208;6.376;-10.782;2023-04-29T12:22:34;15.48;;;3.72;;
56297;SDS011;42208;6.376;-10.782;2023-04-29T12:25:03;17.92;;;4.00;;
56297;SDS011;42208;6.376;-10.782;2023-04-29T12:27:33;17.02;;;4.43;;
56297;SDS011;42208;6.376;-10.782;2023-04-29T12:30:07;13.85;;;4.03;;
56297;SDS011;42208;6.376;-10.782;2023-04-29T12:32:36;19.75;;;4.13;;
56297;SDS011;42208;6.376;-10.782;2023-04-29T12:35:05;16.95;;;5.07;;
56297;SDS011;42208;6.376;-10.782;2023-04-29T12:37:41;14.00;;;3.85;;
56297;SDS011;42208;6.376;-10.782;2023-04-29T12:40:12;13.35;;;4.00;;
56297;SDS011;42208;6.376;-10.782;2023-04-29T12:42:42;16.98;;;3.95;;
56297;SDS011;42208;6.376;-10.782;2023-04-29T12:47:55;13.05;;;3.53;;
56297;SDS011;42208;6.376;-10.782;2023-04-29T12:50:31;10.30;;;3.10;;
56297;SDS011;42208;6.376;-10.782;2023-04-29T12:53:03;14.40;;;3.15;;
56297;SDS011;42208;6.376;-10.782;2023-04-29T12:55:35;13.25;;;2.70;;
56297;SDS011;42208;6.376;-10.782;2023-04-29T12:58:04;11.30;;;3.13;;
56297;SDS011;42208;6.376;-10.782;2023-04-29T13:00:33;10.70;;;3.80;;
56297;SDS011;42208;6.376;-10.782;2023-04-29T13:03:01;16.65;;;2.60;;
56297;SDS011;42208;6.376;-10.782;2023-04-29T13:05:31;12.55;;;3.50;;
56297;SDS011;42208;6.376;-10.782;2023-04-29T13:07:59;15.05;;;3.05;;
56297;SDS011;42208;6.376;-10.782;2023-04-29T13:10:28;16.65;;;4.38;;
56297;SDS011;42208;6.376;-10.782;2023-04-29T13:12:56;10.00;;;2.30;;
56297;SDS011;42208;6.376;-10.782;2023-04-29T13:15:24;96.32;;;56.20;;
56297;SDS011;42208;6.376;-10.782;2023-04-29T13:17:53;18.10;;;5.32;;
56297;SDS011;42208;6.376;-10.782;2023-04-29T13:20:21;24.98;;;8.95;;
56297;SDS011;42208;6.376;-10.782;2023-04-29T13:22:49;14.13;;;3.05;;
56297;SDS011;42208;6.376;-10.782;2023-04-29T13:25:18;11.68;;;3.28;;
56297;SDS011;42208;6.376;-10.782;2023-04-29T13:27:49;6.68;;;5.68;;
56297;SDS011;42208;6.376;-10.782;2023-04-29T13:30:18;12.63;;;2.42;;
56297;SDS011;42208;6.376;-10.782;2023-04-29T13:32:46;25.88;;;2.80;;
56297;SDS011;42208;6.376;-10.782;2023-04-29T13:35:21;9.98;;;2.33;;
56297;SDS011;42208;6.376;-10.782;2023-04-29T13:37:49;11.75;;;2.72;;
56297;SDS011;42208;6.376;-10.782;2023-04-29T13:40:17;17.10;;;3.50;;
56297;SDS011;42208;6.376;-10.782;2023-04-29T13:42:47;22.15;;;3.58;;
56297;SDS011;42208;6.376;-10.782;2023-04-29T13:45:25;13.52;;;3.65;;
56297;SDS011;42208;6.376;-10.782;2023-04-29T13:47:54;13.63;;;4.03;;
56297;SDS011;42208;6.376;-10.782;2023-04-29T13:50:43;9.88;;;2.72;;
56297;SDS011;42208;6.376;-10.782;2023-04-29T13:53:14;9.37;;;2.07;;
56297;SDS011;42208;6.376;-10.782;2023-04-29T13:56:02;6.72;;;2.20;;
56297;SDS011;42208;6.376;-10.782;2023-04-29T13:58:33;11.45;;;3.60;;
56297;SDS011;42208;6.376;-10.782;2023-04-29T14:01:05;17.40;;;3.67;;
56297;SDS011;42208;6.376;-10.782;2023-04-29T14:03:53;17.83;;;4.18;;
56297;SDS011;42208;6.376;-10.782;2023-04-29T14:06:21;30.77;;;5.28;;
56297;SDS011;42208;6.376;-10.782;2023-04-29T14:08:52;10.87;;;3.23;;
56297;SDS011;42208;6.376;-10.782;2023-04-29T14:11:21;15.15;;;2.28;;
56297;SDS011;42208;6.376;-10.782;2023-04-29T14:13:49;15.60;;;3.80;;
56297;SDS011;42208;6.376;-10.782;2023-04-29T14:16:18;14.40;;;3.78;;
56297;SDS011;42208;6.376;-10.782;2023-04-29T14:18:47;11.07;;;4.03;;
56297;SDS011;42208;6.376;-10.782;2023-04-29T14:21:15;34.83;;;5.05;;
56297;SDS011;42208;6.376;-10.782;2023-04-29T14:23:44;27.00;;;3.95;;
56297;SDS011;42208;6.376;-10.782;2023-04-29T14:26:12;23.98;;;4.03;;
56297;SDS011;42208;6.376;-10.782;2023-04-29T14:28:43;17.33;;;3.22;;
56297;SDS011;42208;6.376;-10.782;2023-04-29T14:31:12;14.90;;;2.70;;
56297;SDS011;42208;6.376;-10.782;2023-04-29T14:33:40;13.48;;;3.50;;
56297;SDS011;42208;6.376;-10.782;2023-04-29T14:36:09;11.75;;;3.10;;
56297;SDS011;42208;6.376;-10.782;2023-04-29T14:38:37;14.45;;;3.40;;
56297;SDS011;42208;6.376;-10.782;2023-04-29T14:41:05;11.82;;;2.92;;
56297;SDS011;42208;6.376;-10.782;2023-04-29T14:43:35;15.73;;;3.35;;
56297;SDS011;42208;6.376;-10.782;2023-04-29T14:46:03;23.23;;;4.03;;
56297;SDS011;42208;6.376;-10.782;2023-04-29T14:48:32;23.23;;;4.28;;
56297;SDS011;42208;6.376;-10.782;2023-04-29T14:51:00;15.98;;;3.10;;
56297;SDS011;42208;6.376;-10.782;2023-04-29T14:53:29;11.73;;;3.05;;
56297;SDS011;42208;6.376;-10.782;2023-04-29T14:55:57;16.48;;;3.38;;
56297;SDS011;42208;6.376;-10.782;2023-04-29T14:58:25;11.95;;;3.20;;
56297;SDS011;42208;6.376;-10.782;2023-04-29T15:00:56;15.90;;;3.55;;
56297;SDS011;42208;6.376;-10.782;2023-04-29T15:03:24;18.17;;;2.83;;
56297;SDS011;42208;6.376;-10.782;2023-04-29T15:05:53;29.67;;;3.75;;
56297;SDS011;42208;6.376;-10.782;2023-04-29T15:08:22;23.08;;;4.05;;